createdAt,value
2023-05-21T00:00:17.662Z,100536.97
2023-05-21T00:05:21.709Z,100532.16
2023-05-21T00:10:26.613Z,100524.50
2023-05-21T00:15:29.605Z,100527.22
2023-05-21T00:20:33.165Z,100531.13
2023-05-21T00:25:37.402Z,100522.97
2023-05-21T00:30:41.058Z,100530.69
2023-05-21T00:35:43.960Z,100528.88
2023-05-21T00:40:48.173Z,100517.38
2023-05-21T00:45:53.742Z,100519.22
2023-05-21T00:50:56.604Z,100513.34
2023-05-21T00:56:00.813Z,100518.88
2023-05-21T01:01:06.730Z,100508.34
2023-05-21T01:06:10.305Z,100506.91
2023-05-21T01:11:15.056Z,100490.13
2023-05-21T01:16:18.151Z,100498.72
2023-05-21T01:21:21.648Z,100484.78
2023-05-21T01:26:26.243Z,100487.13
2023-05-21T01:31:30.355Z,100482.13
2023-05-21T01:36:35.982Z,100481.66
2023-05-21T01:41:41.856Z,100489.00
2023-05-21T01:46:44.736Z,100473.13
2023-05-21T01:51:47.601Z,100474.47
2023-05-21T01:56:51.724Z,100477.31
2023-05-21T02:01:54.676Z,100481.09
2023-05-21T02:06:57.569Z,100474.25
2023-05-21T02:12:02.216Z,100478.91
2023-05-21T02:17:05.176Z,100478.06
2023-05-21T02:22:08.180Z,100474.88
2023-05-21T02:27:13.621Z,100471.59
2023-05-21T02:32:17.026Z,100472.72
2023-05-21T02:37:20.149Z,100479.19
2023-05-21T02:42:24.447Z,100473.91
2023-05-21T02:47:27.587Z,100473.31
2023-05-21T02:52:30.473Z,100471.75
2023-05-21T02:57:34.700Z,100475.44
2023-05-21T03:02:37.651Z,100468.44
2023-05-21T03:07:41.837Z,100463.28
2023-05-21T03:12:46.033Z,100465.38
2023-05-21T03:17:48.943Z,100462.06
2023-05-21T03:22:52.767Z,100464.03
2023-05-21T03:27:57.105Z,100471.38
2023-05-21T03:33:21.786Z,100467.09
2023-05-21T03:38:24.832Z,100462.72
2023-05-21T03:43:29.736Z,100464.50
2023-05-21T03:48:32.655Z,100456.59
2023-05-21T03:53:37.032Z,100465.50
2023-05-21T03:58:41.541Z,100462.94
2023-05-21T04:03:44.861Z,100469.03
2023-05-21T04:08:48.084Z,100463.66
2023-05-21T04:13:52.819Z,100468.09
2023-05-21T04:18:56.421Z,100471.63
2023-05-21T04:24:02.154Z,100479.69
2023-05-21T04:29:42.486Z,100473.47
2023-05-21T04:34:45.627Z,100480.56
2023-05-21T04:39:48.469Z,100475.03
2023-05-21T04:44:55.541Z,100480.44
2023-05-21T04:49:59.338Z,100481.28
2023-05-21T04:55:03.810Z,100474.19
2023-05-21T05:00:10.348Z,100474.06
2023-05-21T05:05:17.531Z,100479.44
2023-05-21T05:10:20.409Z,100480.16
2023-05-21T05:15:25.142Z,100480.88
2023-05-21T05:20:28.236Z,100469.41
2023-05-21T05:25:31.391Z,100477.13
2023-05-21T05:30:36.356Z,100464.53
2023-05-21T05:35:50.969Z,100466.09
2023-05-21T05:40:54.025Z,100466.69
2023-05-21T05:46:00.118Z,100463.06
2023-05-21T05:51:03.128Z,100461.00
2023-05-21T05:56:08.321Z,100465.25
2023-05-21T06:01:14.376Z,100463.16
2023-05-21T06:06:18.012Z,100462.22
2023-05-21T06:11:21.584Z,100468.19
2023-05-21T06:16:25.847Z,100466.09
2023-05-21T06:21:29.243Z,100464.13
2023-05-21T06:26:32.376Z,100464.75
2023-05-21T06:31:37.516Z,100462.78
2023-05-21T06:36:40.526Z,100469.50
2023-05-21T06:41:43.466Z,100462.00
2023-05-21T06:47:06.723Z,100463.59
2023-05-21T06:52:09.633Z,100458.94
2023-05-21T06:57:12.680Z,100454.28
2023-05-21T07:02:17.313Z,100464.78
2023-05-21T07:07:20.277Z,100459.53
2023-05-21T07:12:23.639Z,100462.38
2023-05-21T07:17:28.242Z,100459.81
2023-05-21T07:22:31.428Z,100457.13
2023-05-21T07:27:34.343Z,100461.66
2023-05-21T07:32:38.814Z,100457.84
2023-05-21T07:37:41.893Z,100462.50
2023-05-21T07:42:45.575Z,100464.06
2023-05-21T07:47:51.903Z,100455.47
2023-05-21T07:52:55.394Z,100458.72
2023-05-21T07:57:58.549Z,100454.88
2023-05-21T08:03:07.250Z,100453.97
2023-05-21T08:08:10.368Z,100447.50
2023-05-21T08:13:13.436Z,100448.34
2023-05-21T08:18:18.446Z,100454.78
2023-05-21T08:23:22.751Z,100446.66
2023-05-21T08:28:29.849Z,100444.69
2023-05-21T08:33:37.064Z,100443.56
2023-05-21T08:38:40.875Z,100441.16
2023-05-21T08:43:57.573Z,100441.63
2023-05-21T08:49:04.684Z,100440.28
2023-05-21T08:54:09.092Z,100438.81
2023-05-21T08:59:11.966Z,100423.59
2023-05-21T09:04:21.289Z,100427.06
2023-05-21T09:09:31.593Z,100420.97
2023-05-21T09:14:34.490Z,100422.69
2023-05-21T09:20:12.523Z,100425.38
2023-05-21T09:25:22.328Z,100423.81
2023-05-21T09:30:27.817Z,100428.22
2023-05-21T09:35:36.161Z,100416.75
2023-05-21T09:40:40.499Z,100419.41
2023-05-21T09:45:51.783Z,100416.22
2023-05-21T09:50:56.135Z,100412.06
2023-05-21T09:55:59.016Z,100411.31
2023-05-21T10:01:01.843Z,100405.28
2023-05-21T10:06:06.493Z,100397.47
2023-05-21T10:11:09.496Z,100400.81
2023-05-21T10:16:12.758Z,100391.63
2023-05-21T10:21:17.088Z,100387.94
2023-05-21T10:26:21.494Z,100381.88
2023-05-21T10:31:24.540Z,100384.19
2023-05-21T10:36:29.590Z,100380.56
2023-05-21T10:41:35.008Z,100368.50
2023-05-21T10:47:08.608Z,100369.38
2023-05-21T10:52:19.951Z,100371.00
2023-05-21T10:57:44.448Z,100360.66
2023-05-21T11:02:47.462Z,100369.16
2023-05-21T11:07:56.368Z,100365.47
2023-05-21T11:13:14.874Z,100351.28
2023-05-21T11:18:18.222Z,100358.25
2023-05-21T11:23:23.209Z,100358.66
2023-05-21T11:28:35.410Z,100350.31
2023-05-21T11:33:38.288Z,100358.13
2023-05-21T11:38:42.483Z,100340.09
2023-05-21T11:43:45.364Z,100359.00
2023-05-21T11:48:48.166Z,100344.97
2023-05-21T11:53:52.367Z,100347.38
2023-05-21T11:58:55.872Z,100347.38
2023-05-21T12:03:58.823Z,100348.50
2023-05-21T12:09:04.609Z,100340.56
2023-05-21T12:14:09.216Z,100333.31
2023-05-21T12:19:12.134Z,100330.59
2023-05-21T12:24:16.496Z,100318.97
2023-05-21T12:29:20.347Z,100318.69
2023-05-21T12:34:39.508Z,100316.53
2023-05-21T12:39:44.693Z,100320.56
2023-05-21T12:44:51.585Z,100323.53
2023-05-21T12:49:56.406Z,100315.81
2023-05-21T12:55:00.896Z,100321.66
2023-05-21T13:00:06.523Z,100315.84
2023-05-21T13:05:10.251Z,100311.16
2023-05-21T13:10:14.607Z,100314.97
2023-05-21T13:15:17.547Z,100316.00
2023-05-21T13:20:21.856Z,100311.16
2023-05-21T13:25:28.831Z,100314.88
2023-05-21T13:30:33.319Z,100305.38
2023-05-21T13:35:36.378Z,100297.81
2023-05-21T13:40:41.434Z,100302.06
2023-05-21T13:45:52.571Z,100301.94
2023-05-21T13:50:55.436Z,100305.19
2023-05-21T13:55:59.719Z,100296.22
2023-05-21T14:01:02.920Z,100298.88
2023-05-21T14:06:08.299Z,100293.31
2023-05-21T14:11:12.439Z,100292.28
2023-05-21T14:16:15.399Z,100286.19
2023-05-21T14:21:18.466Z,100287.16
2023-05-21T14:26:22.607Z,100282.47
2023-05-21T14:31:25.797Z,100280.22
2023-05-21T14:36:28.906Z,100274.97
2023-05-21T14:41:33.170Z,100281.38
2023-05-21T14:46:36.837Z,100287.75
2023-05-21T14:51:40.666Z,100288.75
2023-05-21T14:56:45.008Z,100280.94
2023-05-21T15:01:49.455Z,100292.28
2023-05-21T15:06:52.455Z,100290.16
2023-05-21T15:11:56.647Z,100290.03
2023-05-21T15:16:59.492Z,100291.72
2023-05-21T15:22:02.728Z,100278.56
2023-05-21T15:27:07.667Z,100279.38
2023-05-21T15:32:10.743Z,100282.19
2023-05-21T15:37:15.344Z,100284.09
2023-05-21T15:42:26.267Z,100273.97
2023-05-21T15:47:29.286Z,100273.19
2023-05-21T15:52:32.773Z,100271.75
2023-05-21T15:57:37.070Z,100260.53
2023-05-21T16:02:40.923Z,100257.78
2023-05-21T16:07:44.468Z,100264.72
2023-05-21T16:12:48.871Z,100253.03
2023-05-21T16:17:51.865Z,100262.91
2023-05-21T16:22:54.779Z,100256.25
2023-05-21T16:27:59.000Z,100257.97
2023-05-21T16:33:01.901Z,100255.47
2023-05-21T16:38:04.764Z,100260.56
2023-05-21T16:43:08.967Z,100264.53
2023-05-21T16:48:12.798Z,100257.59
2023-05-21T16:53:16.257Z,100252.09
2023-05-21T16:58:20.432Z,100262.34
2023-05-21T17:03:23.498Z,100261.09
2023-05-21T17:08:26.304Z,100268.56
2023-05-21T17:13:30.782Z,100260.19
2023-05-21T17:18:33.739Z,100261.94
2023-05-21T17:23:36.577Z,100264.94
2023-05-21T17:28:40.768Z,100256.59
2023-05-21T17:33:43.657Z,100259.56
2023-05-21T17:38:46.903Z,100258.44
2023-05-21T17:43:51.333Z,100260.16
2023-05-21T17:48:54.111Z,100255.63
2023-05-21T17:53:57.494Z,100270.09
2023-05-21T17:59:01.847Z,100267.25
2023-05-21T18:04:05.138Z,100276.66
2023-05-21T18:09:10.431Z,100272.97
2023-05-21T18:14:14.780Z,100287.31
2023-05-21T18:19:17.716Z,100278.78
2023-05-21T18:24:20.688Z,100286.03
2023-05-21T18:29:24.972Z,100283.63
2023-05-21T18:34:27.787Z,100292.03
2023-05-21T18:39:30.710Z,100296.84
2023-05-21T18:44:35.017Z,100298.81
2023-05-21T18:49:37.980Z,100295.28
2023-05-21T18:54:40.923Z,100291.00
2023-05-21T18:59:45.314Z,100294.69
2023-05-21T19:04:48.744Z,100311.03
2023-05-21T19:09:52.732Z,100306.75
2023-05-21T19:14:56.984Z,100306.75
2023-05-21T19:20:00.087Z,100316.84
2023-05-21T19:25:03.013Z,100319.53
2023-05-21T19:30:09.635Z,100320.81
2023-05-21T19:35:12.440Z,100333.72
2023-05-21T19:40:17.546Z,100325.06
2023-05-21T19:45:22.276Z,100322.38
2023-05-21T19:50:25.219Z,100313.84
2023-05-21T19:55:28.437Z,100314.69
2023-05-21T20:00:33.278Z,100326.50
2023-05-21T20:05:36.163Z,100323.63
2023-05-21T20:10:40.360Z,100321.09
2023-05-21T20:15:44.807Z,100325.63
2023-05-21T20:20:47.669Z,100322.22
2023-05-21T20:25:50.992Z,100319.13
2023-05-21T20:30:57.624Z,100326.50
2023-05-21T20:36:00.670Z,100320.38
2023-05-21T20:41:03.704Z,100315.00
2023-05-21T20:46:08.051Z,100321.38
2023-05-21T20:51:11.197Z,100313.44
2023-05-21T20:56:16.998Z,100323.22
2023-05-21T21:01:24.207Z,100326.78
2023-05-21T21:06:30.023Z,100322.22
2023-05-21T21:11:33.066Z,100323.22
2023-05-21T21:16:37.268Z,100333.19
2023-05-21T21:21:40.406Z,100332.31
2023-05-21T21:26:43.623Z,100328.63
2023-05-21T21:31:47.987Z,100333.19
2023-05-21T21:36:51.176Z,100334.16
2023-05-21T21:41:54.045Z,100337.88
2023-05-21T21:46:58.255Z,100337.72
2023-05-21T21:52:01.398Z,100345.09
2023-05-21T21:57:04.656Z,100340.56
2023-05-21T22:02:08.855Z,100333.47
2023-05-21T22:07:17.781Z,100334.56
2023-05-21T22:12:20.929Z,100338.97
2023-05-21T22:17:25.384Z,100327.47
2023-05-21T22:22:28.229Z,100328.34
2023-05-21T22:27:31.032Z,100330.88
2023-05-21T22:32:35.216Z,100331.03
2023-05-21T22:37:38.250Z,100324.53
2023-05-21T22:42:41.209Z,100321.94
2023-05-21T22:47:45.393Z,100310.75
2023-05-21T22:52:48.177Z,100316.28
2023-05-21T22:57:50.928Z,100312.16
2023-05-21T23:02:55.213Z,100311.59
2023-05-21T23:07:58.067Z,100316.13
2023-05-21T23:13:00.910Z,100315.56
2023-05-21T23:18:05.098Z,100317.28
2023-05-21T23:23:08.014Z,100315.69
2023-05-21T23:28:10.817Z,100320.38
2023-05-21T23:33:15.037Z,100316.97
2023-05-21T23:38:17.901Z,100306.59
2023-05-21T23:43:20.751Z,100313.28
2023-05-21T23:48:25.523Z,100316.53
2023-05-21T23:53:28.314Z,100309.13
2023-05-21T23:58:31.114Z,100316.66
